Elkton, Colorado
Current Conditions -  °F | °C
As of 7:56 PM on Thursday 27 Nov 2014 (Local Time) from KCWN Reporting Station
Clear Clear  
Wind Chill: 51°   Ceiling: Unl
Heat Index: 51°   Visibility: 10mi
Dew Point: 17°   Wind: 6mph
Humidity: 26%   Direction: 220°SW
Pressure: 30.19"   Gusts: NA
Location:  38.6816°N, 105.071°W
Report Text: KCWN 280256Z AUTO 22005KT 10SM CLR 11/M08 A3019 RMK AO2 SLP186 T01061084 55005
Loading
Personal Weather Stations






























Interactive Weather Map New forecast layout! Learn more

10-Day Weather Forecast

Advertisements
Track Severe Weather on mobile